RTM weather

Rotterdam The Hague Airport
Rotterdam, Zuid-Holland, Netherlands

Public forecast

Using degrees Celsius for public forecast. Weather courtesy of forecast.io.

Current aviation weather report (METAR) for Rotterdam The Hague Airport

Retrieved 2019/12/10 10:25 UTC (19 minutes ago):

EHRD 101025Z AUTO 20015KT 170V230 9999 NSC 05/01 Q1022 NOSIG

Aviation forecast (TAF) for Rotterdam The Hague Airport

Retrieved 2019/12/10 06:27 UTC (4 hours ago):

TAF EHRD 100512Z 1006/1112 22006KT 9999 SCT030 BECMG 1009/1012 19015KT BECMG 1015/1018 19021G31KT BECMG 1022/1101 7000 RA TEMPO 1101/1104 FEW008 BKN012 BECMG 1103/1105 24007KT 9999 NSW SCT020 BECMG 1105/1108 20010KT